Latest Coastal Weather Observations for Wynyard

IDV60701

Issued at 8:45 am EDT Tuesday 25 November 2014 (issued every 10 minutes, with the page automatically refreshed every 10 minutes)

About coastal observations | Map of coastal stations | Coastal observations for VIC | Marine services | Other Formats
Station Details ID: 091107 Name: WYNYARD AIRPORT Lat: -41.00 Lon: 145.73 Height: 12.0 m
Data from the previous 72 hours. | See also: Recent months at Wynyard
Date/Time
EDT
Temp

°C
Wind Pressure Rain
since 9am
mm
Weather Cloud Vis
km
Sea
Height
m
Swell
Dir
 
Speed
knots
Gust
knots
hPa Trend Height
m
Period
s
Dir
25/08:33am 12.6 SW 17 27 1010.1 - 1.6 - Partly cloudy 10 - - - -
25/08:30am 13.2 SW 17 26 1010.1 - 1.6 - Partly cloudy 10 - - - -
25/08:18am 13.2 SW 20 31 1009.9 - 1.6 - Partly cloudy 10 - - - -
25/08:00am 13.7 WSW 20 28 1009.6 - 1.6 - Partly cloudy 10 - - - -
25/07:30am 12.4 WSW 18 28 1009.1 - 1.6 - - 10 - - - -
25/07:23am 12.4 WSW 15 25 1009.0 - 1.6 - - 10 - - - -
25/07:00am 11.7 WSW 13 17 1008.8 - 1.6 - - 10 - - - -
25/06:30am 10.9 SW 13 16 1008.5 - 1.6 - - 10 - - - -
25/06:00am 10.3 SW 14 19 1008.0 - 1.6 - Partly cloudy 10 - - - -
25/05:30am 10.3 SW 13 16 1007.7 - 1.6 - Partly cloudy 10 - - - -
25/05:00am 10.5 SW 15 19 1007.2 - 1.6 - Partly cloudy 10 - - - -
25/04:30am 10.3 WSW 13 17 1007.0 - 1.6 - Partly cloudy 10 - - - -
25/04:00am 9.9 WSW 12 17 1007.0 - 1.6 - - 10 - - - -
25/03:30am 9.5 SW 11 17 1006.8 - 1.6 - Partly cloudy 10 - - - -
25/03:00am 9.5 WSW 13 17 1006.9 - 1.6 - Mostly clear 10 - - - -
25/02:30am 9.8 W 13 18 1006.9 - 1.6 - Partly cloudy 10 - - - -
25/02:00am 9.0 WSW 10 12 1007.2 - 1.6 - - 10 - - - -
25/01:30am 8.1 SW 7 10 1007.3 - 1.6 - - 10 - - - -
25/01:00am 8.2 SW 1 3 1007.6 - 1.6 - Partly cloudy 10 - - - -
25/12:30am 8.3 SW 5 7 1007.7 - 1.4 - Partly cloudy 10 - - - -
25/12:00am 9.1 SW 8 10 1007.6 - 1.4 - Mostly clear 10 - - - -
 
Date/Time
EDT
Temp

°C
Wind Pressure Rain
since 9am
mm
Weather Cloud Vis
km
Sea
Height
m
Swell
Dir
 
Speed
knots
Gust
knots
hPa Trend Height
m
Period
s
Dir
24/11:30pm 8.2 SW 6 7 1007.8 - 1.4 - Partly cloudy 10 - - - -
24/11:00pm 8.9 SW 7 8 1007.7 - 1.4 - - 10 - - - -
24/10:30pm 9.7 SW 8 11 1007.8 - 1.4 - - 10 - - - -
24/10:00pm 10.7 SW 11 15 1007.7 - 1.4 - - 10 - - - -
24/09:30pm 11.0 SW 13 18 1007.0 - 1.4 - - 10 - - - -
24/09:00pm 11.1 W 12 18 1006.5 - 1.4 - - 10 - - - -
24/08:30pm 11.2 WSW 10 12 1006.2 - 1.4 - - 10 - - - -
24/08:00pm 12.1 SW 10 14 1005.9 - 1.4 - - 10 - - - -
24/07:30pm 13.2 SW 12 16 1005.4 - 1.4 - Partly cloudy 10 - - - -
24/07:00pm 13.6 SW 11 18 1004.7 - 1.4 - Partly cloudy 10 - - - -
24/06:30pm 13.7 WSW 11 15 1004.3 - 1.4 - Partly cloudy 10 - - - -
24/06:00pm 13.7 SW 10 14 1004.1 - 1.4 - Cloudy 10 - - - -
24/05:41pm 13.7 SW 5 10 1004.2 - 1.4 - Partly cloudy 10 - - - -
24/05:30pm 13.5 SSW 9 13 1004.6 - 1.4 - Partly cloudy 5 - - - -
24/05:27pm 13.6 SSW 9 11 1004.7 - 1.4 - Partly cloudy 5 - - - -
24/05:00pm 13.6 SSW 4 6 1004.4 - 1.4 - Partly cloudy 10 - - - -
24/04:30pm 13.1 S 5 7 1004.6 - 1.4 - Partly cloudy 10 - - - -
24/04:29pm 13.0 S 5 7 1004.6 - 1.4 - Partly cloudy 10 - - - -
24/04:00pm 13.0 S 6 8 1005.0 - 1.2 - Partly cloudy 3 - - - -
24/03:30pm 13.5 ESE 6 10 1005.0 - 1.0 - Cloudy 5 - - - -
24/03:24pm 13.5 E 6 10 1005.1 - 1.0 - Cloudy 5 - - - -
24/03:21pm 13.5 E 6 10 1005.0 - 1.0 - Cloudy 7 - - - -
24/03:00pm 13.8 E 6 8 1005.3 - 1.0 - Cloudy 8 - - - -
24/02:30pm 13.8 E 8 11 1005.6 - 1.0 - Cloudy 10 - - - -
24/02:00pm 14.0 E 9 12 1005.9 - 1.0 - Partly cloudy 10 - - - -
24/01:30pm 14.1 E 8 11 1006.7 - 1.0 - Partly cloudy 10 - - - -
24/01:00pm 14.5 E 6 9 1007.5 - 1.0 - Cloudy 10 - - - -
24/12:30pm 13.9 ENE 5 10 1007.8 - 1.0 - Partly cloudy 10 - - - -
24/12:00pm 14.1 ENE 3 6 1008.1 - 0.6 Recent precip. Cloudy 10 - - - -
24/11:30am 14.0 ESE 3 4 1008.9 - 0.6 - Partly cloudy 10 - - - -
24/11:00am 14.5 E 5 8 1009.0 - 0.4 - Cloudy 10 - - - -
24/10:30am 14.3 SSW 3 5 1009.5 - 0.4 - Partly cloudy 10 - - - -
24/10:00am 13.5 SW 3 6 1010.3 - 0.2 - Partly cloudy 10 - - - -
24/09:30am 13.2 E 3 5 1009.8 - 0.0 - Cloudy 10 - - - -
24/09:00am 12.5 S 5 7 1009.5 - 0.8 Recent precip. Mostly cloudy 10 - - - -
24/08:30am 11.7 W 7 9 1010.7 - 0.2 - Partly cloudy 10 - - - -
24/08:00am 12.1 WNW 3 5 1010.3 - 0.0 - Cloudy 10 - - - -
24/07:30am 11.1 W 3 5 1010.2 - 0.0 - Partly cloudy 10 - - - -
24/07:00am 10.5 W 5 7 1010.4 - 0.0 - Cloudy 10 - - - -
24/06:30am 10.1 W 4 5 1010.3 - 0.0 - Cloudy 10 - - - -
24/06:00am 10.0 WNW 3 5 1009.9 - 0.0 - Cloudy 10 - - - -
24/05:30am 9.9 W 4 5 1009.8 - 0.0 - Partly cloudy 10 - - - -
24/05:00am 9.2 WSW 5 6 1010.7 - 0.0 - Partly cloudy 10 - - - -
24/04:30am 9.1 W 3 4 1010.9 - 0.0 - Partly cloudy 10 - - - -
24/04:00am 8.8 WSW 6 7 1011.4 - 0.0 - Partly cloudy 10 - - - -
24/03:30am 8.5 W 5 7 1011.7 - 0.0 - - 10 - - - -
24/03:00am 7.2 W 6 7 1011.7 - 0.0 - Mostly cloudy 10 - - - -
24/02:30am 6.9 WSW 5 6 1011.8 - 0.0 - - 10 - - - -
24/02:00am 6.8 W 6 7 1011.8 - 0.0 - - 10 - - - -
24/01:30am 7.4 W 6 7 1011.9 - 0.0 - - 10 - - - -
24/01:00am 8.3 SW 4 7 1011.9 - 0.0 - - 10 - - - -
24/12:30am 8.7 SW 5 6 1012.3 - 0.0 - - 10 - - - -
24/12:00am 10.1 WSW 4 5 1012.5 - 0.0 - - 10 - - - -
 
Date/Time
EDT
Temp

°C
Wind Pressure Rain
since 9am
mm
Weather Cloud Vis
km
Sea
Height
m
Swell
Dir
 
Speed
knots
Gust
knots
hPa Trend Height
m
Period
s
Dir
23/11:30pm 11.1 WSW 3 4 1012.6 - 0.0 - - 10 - - - -
23/11:00pm 11.4 WSW 4 4 1012.6 - 0.0 - - 10 - - - -
23/10:30pm 11.2 WSW 5 6 1012.5 - 0.0 - - 10 - - - -
23/10:00pm 12.1 SW 7 8 1012.6 - 0.0 - - 10 - - - -
23/09:30pm 13.8 W 7 8 1012.6 - 0.0 - - 10 - - - -
23/09:00pm 14.8 W 8 9 1012.7 - 0.0 - - 10 - - - -
23/08:30pm 15.6 W 8 10 1012.5 - 0.0 - - 10 - - - -
23/08:00pm 16.8 W 11 15 1012.2 - 0.0 - - 10 - - - -
23/07:30pm 18.1 W 13 18 1011.8 - 0.0 - - 10 - - - -
23/07:00pm 19.3 W 13 17 1011.3 - 0.0 - - 10 - - - -
23/06:30pm 20.3 WSW 16 21 1010.8 - 0.0 - - 10 - - - -
23/06:00pm 20.6 W 16 20 1010.6 - 0.0 - - 10 - - - -
23/05:30pm 21.3 W 15 22 1010.4 - 0.0 - - 10 - - - -
23/05:00pm 22.2 W 13 17 1009.9 - 0.0 - - 10 - - - -
23/04:30pm 22.3 WSW 17 21 1009.7 - 0.0 - - 10 - - - -
23/04:00pm 22.3 W 17 19 1009.5 - 0.0 - - 10 - - - -
23/03:30pm 22.7 WSW 15 22 1009.0 - 0.0 - - 10 - - - -
23/03:00pm 22.4 WSW 15 23 1009.1 - 0.0 - - 10 - - - -
23/02:30pm 21.6 W 16 22 1009.3 - 0.0 - - 10 - - - -
23/02:02pm 21.8 SW 15 25 1009.5 - 0.0 - - 10 - - - -
23/02:00pm 21.8 SW 17 25 1009.6 - 0.0 - - 10 - - - -
23/01:30pm 21.9 SW 16 21 1009.7 - 0.0 - - 10 - - - -
23/01:00pm 21.7 W 13 19 1009.9 - 0.0 - - 10 - - - -
23/12:30pm 21.0 W 13 19 1010.2 - 0.0 - Partly cloudy 10 - - - -
23/12:00pm 20.2 WSW 11 22 1010.4 - 0.0 - Mostly clear 10 - - - -
23/11:30am 20.3 WSW 13 17 1010.4 - 0.0 - Partly cloudy 10 - - - -
23/11:00am 19.0 W 12 16 1010.7 - 0.0 - - 10 - - - -
23/10:30am 18.7 W 15 20 1010.6 - 0.0 - - 10 - - - -
23/10:00am 17.7 SW 9 11 1010.5 - 0.0 - - 10 - - - -
23/09:30am 16.9 W 11 12 1010.5 - 0.0 - - 10 - - - -
23/09:00am 16.2 WSW 13 17 1010.3 - 1.0 - - 10 - - - -
23/08:30am 15.4 SW 12 17 1010.3 - 1.0 - - 10 - - - -
23/08:00am 14.4 WSW 11 15 1009.9 - 1.0 - - 10 - - - -
23/07:30am 13.5 W 8 12 1009.4 - 1.0 - - 10 - - - -
23/07:00am 12.5 WSW 9 11 1009.1 - 1.0 - - 10 - - - -
23/06:30am 11.2 WSW 9 10 1008.6 - 1.0 - - 10 - - - -
23/06:00am 9.6 W 8 9 1008.2 - 1.0 - - 10 - - - -
23/05:30am 9.4 W 7 8 1007.8 - 1.0 - - 10 - - - -
23/05:00am 9.5 WNW 7 8 1007.3 - 1.0 - - 10 - - - -
23/04:30am 10.4 W 5 6 1007.0 - 1.0 - - 10 - - - -
23/04:00am 11.8 SW 10 13 1006.7 - 1.0 - - 10 - - - -
23/03:30am 12.6 SW 10 13 1006.6 - 1.0 - - 10 - - - -
23/03:00am 12.0 SW 6 8 1006.5 - 1.0 - Mostly clear 10 - - - -
23/02:30am 12.8 WSW 7 10 1006.5 - 1.0 - - 10 - - - -
23/02:00am 13.3 SW 9 12 1006.2 - 1.0 - - 10 - - - -
23/01:30am 13.1 SW 10 13 1006.3 - 1.0 - - 10 - - - -
23/01:00am 12.0 W 8 9 1006.0 - 1.0 - - 10 - - - -
23/12:30am 12.2 W 7 9 1005.7 - 1.0 - - 10 - - - -
23/12:00am 12.7 WNW 7 8 1005.5 - 1.0 - Mostly clear 10 - - - -
 
Date/Time
EDT
Temp

°C
Wind Pressure Rain
since 9am
mm
Weather Cloud Vis
km
Sea
Height
m
Swell
Dir
 
Speed
knots
Gust
knots
hPa Trend Height
m
Period
s
Dir
22/11:30pm 12.9 SSW 4 6 1005.7 - 1.0 - Partly cloudy 10 - - - -
22/11:00pm 14.0 SSW 5 8 1005.8 - 1.0 - Partly cloudy 10 - - - -
22/10:30pm 14.0 S 6 8 1005.9 - 1.0 - Partly cloudy 10 - - - -
22/10:00pm 14.4 SSE 4 7 1006.4 - 1.0 - Partly cloudy 10 - - - -
22/09:30pm 14.4 ENE 8 11 1005.7 - 1.0 - Partly cloudy 10 - - - -
22/09:00pm 14.0 E 1 4 1005.8 - 1.0 - Cloudy 10 - - - -
22/08:30pm 14.2 SE 5 8 1005.7 - 1.0 - Partly cloudy 10 - - - -
22/08:00pm 14.3 E 6 9 1005.6 - 1.0 - Partly cloudy 10 - - - -
22/07:30pm 14.8 E 7 9 1006.1 - 1.0 - - 10 - - - -
22/07:00pm 15.2 E 8 12 1005.9 - 1.0 - - 10 - - - -
22/06:30pm 15.4 E 8 12 1006.0 - 1.0 - Partly cloudy 10 - - - -
22/06:00pm 15.8 E 9 13 1006.0 - 1.0 - Mostly clear 10 - - - -
22/05:30pm 15.5 E 9 12 1006.4 - 1.0 - Partly cloudy 10 - - - -
22/05:23pm 15.7 E 9 13 1006.4 - 1.0 - Partly cloudy 10 - - - -
22/05:00pm 15.4 E 10 12 1006.5 - 1.0 - Partly cloudy 10 - - - -
22/04:30pm 16.1 E 9 11 1006.6 - 1.0 - Partly cloudy 10 - - - -
22/04:00pm 16.5 E 8 12 1007.0 - 1.0 - Partly cloudy 10 - - - -
22/03:30pm 15.4 E 10 13 1007.3 - 1.0 - Partly cloudy 10 - - - -
22/03:26pm 15.5 E 10 14 1007.3 - 1.0 - Partly cloudy 10 - - - -
22/03:00pm 14.7 E 7 11 1007.9 - 1.0 Rain Partly cloudy 9 - - - -
22/02:55pm 14.6 E 7 10 1008.1 - 0.8 - Partly cloudy 9 - - - -
22/02:30pm 15.0 E 7 10 1008.7 - 0.4 - Partly cloudy 10 - - - -
22/02:00pm 15.3 E 7 10 1008.7 - 0.4 - Cloudy 10 - - - -
22/01:30pm 15.1 E 9 12 1008.8 - 0.4 - Partly cloudy 10 - - - -
22/01:17pm 14.7 E 9 12 1009.1 - 0.4 - Partly cloudy 10 - - - -
22/01:00pm 15.1 E 9 12 1009.1 - 0.4 - Partly cloudy 7 - - - -
22/12:30pm 14.4 E 8 11 1009.8 - 0.2 - Partly cloudy 10 - - - -
22/12:00pm 14.7 E 10 15 1009.5 - 0.2 - Cloudy 10 - - - -
22/11:30am 15.2 E 10 15 1009.7 - 0.2 - Partly cloudy 10 - - - -
22/11:17am 16.4 E 9 15 1009.7 - 0.2 - Partly cloudy 10 - - - -
22/11:00am 15.6 E 9 12 1009.8 - 0.2 - Partly cloudy 10 - - - -
22/10:30am 13.9 E 7 9 1010.3 - 0.2 - Partly cloudy 10 - - - -
22/10:17am 14.3 E 7 11 1010.4 - 0.2 - Partly cloudy 10 - - - -
22/10:00am 13.6 E 6 8 1010.5 - 0.2 - Cloudy 10 - - - -
22/09:30am 13.5 E 6 9 1010.4 - 0.2 - Partly cloudy 10 - - - -
22/09:00am 12.5 E 3 5 1010.8 - 0.0 - Cloudy 10 - - - -

Other Formats:

Comma delimited format used in spreadsheet applications
http://www.bom.gov.au/fwo/IDV60701/IDV60701.95957.axf

JavaScript Object Notation format (JSON) in row-major order
http://www.bom.gov.au/fwo/IDV60701/IDV60701.95957.json